Time;durP1;ratioP1;P1;durP2;ratioP2;P2;SDS_P1;SDS_P2;PMS_P1;PMS_P2;Temp;Humidity;BMP_temperature;BMP_pressure;BME280_temperature;BME280_humidity;BME280_pressure;Samples;Min_cycle;Max_cycle;Signal;HPM_P1;HPM_P2
2022/09/08 00:01:10;;;;;;;5.68;2.53;;;15.80;99.90;;;;;;7366262;32;20104;-59
2022/09/08 00:05:14;;;;;;;3.42;2.50;;;15.90;99.90;;;;;;7357318;32;20152;-59
2022/09/08 00:09:16;;;;;;;5.62;2.83;;;16.00;99.90;;;;;;7362820;32;20507;-61
2022/09/08 00:13:18;;;;;;;9.20;3.20;;;16.10;99.90;;;;;;7365554;32;20611;-59
2022/09/08 00:17:20;;;;;;;4.82;3.10;;;16.20;99.90;;;;;;7360080;32;20648;-59
2022/09/08 00:21:24;;;;;;;3.87;2.47;;;16.30;99.90;;;;;;7363887;32;20110;-59
2022/09/08 00:25:26;;;;;;;4.47;2.40;;;16.30;99.90;;;;;;7365652;32;20167;-59
2022/09/08 00:29:28;;;;;;;6.30;2.90;;;16.50;99.90;;;;;;7361092;32;20237;-59
2022/09/08 00:33:30;;;;;;;5.65;3.03;;;16.60;99.90;;;;;;7366358;32;20582;-59
2022/09/08 00:37:32;;;;;;;4.15;2.75;;;16.70;99.90;;;;;;7361635;32;20132;-59
2022/09/08 00:41:33;;;;;;;4.90;2.85;;;16.70;99.90;;;;;;7365719;32;20864;-59
2022/09/08 00:45:46;;;;;;;6.68;2.80;;;16.80;99.90;;;;;;7360014;32;20667;-59
2022/09/08 00:49:52;;;;;;;7.68;3.17;;;16.90;99.90;;;;;;7358455;32;20194;-59
2022/09/08 00:53:56;;;;;;;7.68;3.22;;;16.90;99.90;;;;;;7363657;32;20134;-60
2022/09/08 00:57:58;;;;;;;5.78;2.37;;;16.90;99.90;;;;;;7364994;32;20217;-59
2022/09/08 01:02:01;;;;;;;5.97;3.05;;;16.90;99.90;;;;;;7362274;32;20194;-60
2022/09/08 01:12:43;;;;;;;4.07;2.65;;;16.90;99.90;;;;;;7363739;32;20225;-60
2022/09/08 01:15:41;;;;;;;3.83;2.60;;;17.00;99.90;;;;;;7363824;32;21163;-59
2022/09/08 01:19:46;;;;;;;9.35;2.50;;;17.00;99.90;;;;;;7364410;32;20171;-58
2022/09/08 01:24:16;;;;;;;4.45;2.75;;;17.00;99.90;;;;;;7365924;32;20616;-58
2022/09/08 01:28:27;;;;;;;9.65;2.83;;;16.90;99.90;;;;;;7350666;32;20116;-59
2022/09/08 01:32:32;;;;;;;3.90;2.28;;;16.90;99.90;;;;;;7365378;32;20142;-59
2022/09/08 01:36:33;;;;;;;4.05;2.30;;;16.90;99.90;;;;;;7370104;32;20551;-59
2022/09/08 01:40:38;;;;;;;5.43;2.85;;;16.90;99.90;;;;;;7370307;32;20171;-59
2022/09/08 01:44:39;;;;;;;4.55;2.45;;;16.90;99.90;;;;;;7366377;32;20220;-59
2022/09/08 01:48:41;;;;;;;5.12;2.75;;;16.90;99.90;;;;;;7368241;32;20479;-58
2022/09/08 01:52:43;;;;;;;3.45;2.10;;;16.80;99.90;;;;;;7359846;32;20123;-59
2022/09/08 01:56:44;;;;;;;4.47;2.55;;;16.80;99.90;;;;;;7362494;32;20132;-59
2022/09/08 02:00:46;;;;;;;5.47;2.72;;;16.80;99.90;;;;;;7369147;32;20106;-58
2022/09/08 02:04:48;;;;;;;7.20;2.33;;;16.70;99.90;;;;;;7369370;32;20147;-58
2022/09/08 02:08:53;;;;;;;6.45;2.55;;;16.70;99.90;;;;;;7366066;32;20190;-59
2022/09/08 02:12:54;;;;;;;7.12;2.50;;;16.60;99.90;;;;;;7365107;32;20127;-59
2022/09/08 02:16:56;;;;;;;7.62;2.12;;;16.60;99.90;;;;;;7376118;32;20111;-59
2022/09/08 02:21:03;;;;;;;8.90;3.05;;;16.60;99.90;;;;;;7366951;32;20574;-58
2022/09/08 02:25:05;;;;;;;7.57;2.92;;;16.70;99.90;;;;;;7362382;32;20220;-59
2022/09/08 02:29:09;;;;;;;6.53;2.92;;;16.70;99.90;;;;;;7355940;32;20135;-58
2022/09/08 02:33:11;;;;;;;4.18;2.60;;;16.70;99.90;;;;;;7359751;32;20561;-58
2022/09/08 02:37:12;;;;;;;9.45;2.85;;;16.80;99.90;;;;;;7366522;32;20134;-58
2022/09/08 02:41:14;;;;;;;5.78;2.67;;;16.80;99.90;;;;;;7364588;32;20130;-58
2022/09/08 02:45:16;;;;;;;3.22;2.22;;;16.90;99.90;;;;;;7367277;32;20127;-58
2022/09/08 02:49:18;;;;;;;4.37;2.70;;;16.90;99.90;;;;;;7363793;32;20129;-58
2022/09/08 02:53:19;;;;;;;5.45;2.50;;;17.00;99.90;;;;;;7363630;32;20182;-58
2022/09/08 02:57:21;;;;;;;5.82;2.50;;;17.10;99.90;;;;;;7367025;32;20126;-59
2022/09/08 03:01:23;;;;;;;5.82;2.45;;;17.20;99.90;;;;;;7361750;32;20563;-59
2022/09/08 03:05:25;;;;;;;3.97;1.90;;;17.40;99.90;;;;;;7367261;32;20126;-58
2022/09/08 03:09:27;;;;;;;3.37;2.25;;;17.30;99.90;;;;;;7362088;32;20111;-59
2022/09/08 03:13:29;;;;;;;3.78;2.00;;;17.30;99.90;;;;;;7362743;32;20125;-58
2022/09/08 03:17:31;;;;;;;4.43;1.87;;;17.40;99.90;;;;;;7366128;32;20126;-58
2022/09/08 03:21:33;;;;;;;3.33;1.73;;;17.70;99.90;;;;;;7366963;32;21098;-59
2022/09/08 03:25:36;;;;;;;3.85;1.85;;;17.80;99.90;;;;;;7364451;32;20123;-59
2022/09/08 03:29:38;;;;;;;3.67;1.60;;;17.80;99.90;;;;;;7366673;32;20114;-59
2022/09/08 03:33:40;;;;;;;3.55;1.65;;;17.90;99.90;;;;;;7359189;32;20309;-59
2022/09/08 03:37:42;;;;;;;6.03;1.65;;;17.90;99.90;;;;;;7363327;32;20111;-59
2022/09/08 03:41:44;;;;;;;4.87;1.37;;;18.00;99.90;;;;;;7359024;32;20169;-59
2022/09/08 03:45:46;;;;;;;2.10;1.12;;;18.10;99.90;;;;;;7367629;32;20111;-59
2022/09/08 03:49:48;;;;;;;5.72;1.75;;;18.10;99.90;;;;;;7357791;32;20497;-58
2022/09/08 03:53:52;;;;;;;2.37;1.10;;;18.10;99.90;;;;;;7362278;32;20189;-59
2022/09/08 03:57:53;;;;;;;2.83;1.30;;;18.00;99.90;;;;;;7365700;32;20182;-58
2022/09/08 04:01:55;;;;;;;4.35;2.10;;;18.00;99.90;;;;;;7364583;32;20153;-59
2022/09/08 04:05:58;;;;;;;4.47;1.95;;;17.80;99.90;;;;;;7358957;32;20119;-59
2022/09/08 04:10:01;;;;;;;3.37;1.90;;;17.80;99.90;;;;;;7360256;32;20185;-58
2022/09/08 04:14:13;;;;;;;3.92;2.22;;;17.60;99.90;;;;;;7359472;32;20112;-58
2022/09/08 04:18:15;;;;;;;4.12;2.42;;;17.40;99.90;;;;;;7360814;32;20111;-58
2022/09/08 04:22:21;;;;;;;4.40;2.53;;;17.30;99.90;;;;;;7360592;32;20987;-58
2022/09/08 04:26:23;;;;;;;5.00;2.72;;;17.30;99.90;;;;;;7367288;32;20133;-58
2022/09/08 04:30:25;;;;;;;5.35;2.70;;;17.20;99.90;;;;;;7348447;32;20298;-59
2022/09/08 04:34:26;;;;;;;4.22;2.42;;;17.30;99.90;;;;;;7358661;32;20252;-58
2022/09/08 04:38:28;;;;;;;6.40;3.00;;;17.30;99.90;;;;;;7353125;32;20195;-58
2022/09/08 04:42:30;;;;;;;4.78;3.00;;;17.20;99.90;;;;;;7357785;32;20111;-58
2022/09/08 04:46:33;;;;;;;7.37;3.03;;;17.10;99.90;;;;;;7356586;32;20146;-59
2022/09/08 04:50:35;;;;;;;4.35;3.33;;;16.90;99.90;;;;;;7362808;32;20103;-59
2022/09/08 04:54:37;;;;;;;6.05;4.50;;;16.80;99.90;;;;;;7359355;32;20190;-60
2022/09/08 04:58:41;;;;;;;7.25;4.87;;;16.80;99.90;;;;;;7364463;32;20213;-67
2022/09/08 05:02:46;;;;;;;6.60;4.95;;;16.70;99.90;;;;;;7362852;32;20446;-67
2022/09/08 05:06:47;;;;;;;10.68;5.95;;;16.60;99.90;;;;;;7365106;32;20141;-67
2022/09/08 05:10:49;;;;;;;10.70;5.97;;;16.60;99.90;;;;;;7354056;32;20167;-67
2022/09/08 05:14:51;;;;;;;8.50;5.70;;;16.60;99.90;;;;;;7365162;32;20441;-68
2022/09/08 05:18:55;;;;;;;10.10;5.32;;;16.60;99.90;;;;;;7358806;32;20272;-67
2022/09/08 05:22:57;;;;;;;9.70;6.90;;;16.60;99.90;;;;;;7367329;32;20208;-68
2022/09/08 05:26:59;;;;;;;8.95;6.57;;;16.60;99.90;;;;;;7355970;32;20149;-67
2022/09/08 05:31:01;;;;;;;11.48;7.65;;;16.50;99.90;;;;;;7353550;32;20186;-64
2022/09/08 05:35:03;;;;;;;13.45;8.02;;;16.50;99.90;;;;;;7358328;32;20123;-67
2022/09/08 05:39:07;;;;;;;15.43;8.35;;;16.50;99.90;;;;;;7343984;32;20162;-64
2022/09/08 05:43:09;;;;;;;8.95;7.75;;;16.60;99.90;;;;;;7358530;32;20119;-64
2022/09/08 05:47:11;;;;;;;12.60;7.72;;;16.50;99.90;;;;;;7359246;32;20248;-64
2022/09/08 05:51:18;;;;;;;12.20;7.57;;;16.50;99.90;;;;;;7363200;32;20116;-64
2022/09/08 05:55:20;;;;;;;11.45;8.10;;;16.60;99.90;;;;;;7355596;32;20945;-66
2022/09/08 05:59:21;;;;;;;14.50;8.60;;;16.60;99.90;;;;;;7371041;32;20202;-64
2022/09/08 06:03:24;;;;;;;14.02;8.05;;;16.60;99.90;;;;;;7358924;32;20190;-64
2022/09/08 06:07:26;;;;;;;13.45;9.40;;;16.60;99.90;;;;;;7362363;32;20204;-64
2022/09/08 06:11:30;;;;;;;14.00;9.65;;;16.60;99.90;;;;;;7363842;32;20205;-64
2022/09/08 06:15:31;;;;;;;11.00;7.12;;;16.60;99.90;;;;;;7354115;32;20182;-64
2022/09/08 06:19:33;;;;;;;7.40;4.55;;;16.60;99.90;;;;;;7352983;32;20996;-65
2022/09/08 06:23:35;;;;;;;8.40;3.85;;;16.40;99.90;;;;;;7357282;32;20190;-65
2022/09/08 06:27:45;;;;;;;10.70;4.07;;;16.30;99.90;;;;;;7358732;32;20599;-65
2022/09/08 06:32:01;;;;;;;10.13;4.72;;;16.20;99.90;;;;;;7381063;32;20107;-65
2022/09/08 06:36:17;;;;;;;7.82;4.32;;;16.10;99.90;;;;;;7365322;32;20102;-65
2022/09/08 06:40:22;;;;;;;9.23;4.18;;;16.00;99.90;;;;;;7359654;32;20241;-64
2022/09/08 06:44:29;;;;;;;10.95;4.03;;;16.00;99.90;;;;;;7362128;32;20126;-65
2022/09/08 06:48:32;;;;;;;7.53;4.25;;;16.00;99.90;;;;;;7359319;32;20119;-65
2022/09/08 06:52:46;;;;;;;10.38;5.10;;;15.90;99.90;;;;;;7355171;32;20769;-64
2022/09/08 06:57:22;;;;;;;;;;;16.00;99.90;;;;;;7359575;32;20364;-64
2022/09/08 07:01:54;;;;;;;6.87;3.65;;;16.00;99.90;;;;;;7352219;32;20137;-64
2022/09/08 07:05:58;;;;;;;8.88;3.35;;;15.90;99.90;;;;;;7352315;32;20131;-65
2022/09/08 07:10:04;;;;;;;9.35;4.15;;;15.90;99.90;;;;;;7361662;32;20593;-64
2022/09/08 07:14:26;;;;;;;8.37;3.60;;;15.90;99.90;;;;;;7365275;32;20217;-65
2022/09/08 07:18:48;;;;;;;7.82;3.42;;;15.90;99.90;;;;;;7360563;32;20130;-64
2022/09/08 07:23:20;;;;;;;7.15;3.92;;;15.90;99.90;;;;;;7369576;32;20210;-64
2022/09/08 07:27:23;;;;;;;8.88;4.20;;;15.90;99.90;;;;;;7363436;32;20242;-64
2022/09/08 07:31:25;;;;;;;9.88;4.55;;;15.90;99.90;;;;;;7361053;32;20107;-64
2022/09/08 07:35:44;;;;;;;7.60;3.72;;;15.90;99.90;;;;;;7359753;32;20494;-64
2022/09/08 07:40:20;;;;;;;8.02;4.28;;;15.90;99.90;;;;;;7364401;32;20114;-64
2022/09/08 07:44:22;;;;;;;11.45;4.37;;;16.00;99.90;;;;;;7360597;32;20098;-64
2022/09/08 07:48:33;;;;;;;10.00;4.53;;;16.00;99.90;;;;;;7360369;32;20258;-64
2022/09/08 07:52:43;;;;;;;11.02;4.90;;;16.00;99.90;;;;;;7363156;32;20538;-64
2022/09/08 07:57:05;;;;;;;9.18;4.70;;;16.00;99.90;;;;;;7365101;32;20209;-64
2022/09/08 08:01:52;;;;;;;8.98;4.93;;;16.20;99.90;;;;;;7353595;32;20286;-65
2022/09/08 08:06:11;;;;;;;7.00;4.65;;;16.20;99.90;;;;;;7350330;32;20274;-65
2022/09/08 08:10:43;;;;;;;12.85;3.80;;;16.30;99.90;;;;;;7354776;32;20164;-64
2022/09/08 08:14:46;;;;;;;5.15;2.28;;;16.40;99.90;;;;;;7356421;32;20253;-65
2022/09/08 08:19:06;;;;;;;6.87;1.80;;;16.50;99.90;;;;;;7356188;32;20204;-66
2022/09/08 08:23:27;;;;;;;4.15;1.00;;;16.60;99.90;;;;;;7365817;32;20127;-65
2022/09/08 08:28:01;;;;;;;4.65;1.37;;;16.50;99.90;;;;;;7366722;32;20614;-65
2022/09/08 08:32:14;;;;;;;2.58;0.90;;;16.60;99.90;;;;;;7357113;32;20129;-64
2022/09/08 08:36:41;;;;;;;2.15;1.08;;;16.50;99.90;;;;;;7358659;32;20155;-65
2022/09/08 08:40:56;;;;;;;2.35;0.77;;;16.50;99.90;;;;;;7353867;32;20119;-65
2022/09/08 08:45:36;;;;;;;5.03;1.17;;;16.70;99.90;;;;;;7358328;32;20111;-65
2022/09/08 08:49:49;;;;;;;3.33;1.20;;;16.90;99.90;;;;;;7360204;32;20107;-65
2022/09/08 08:54:11;;;;;;;4.35;2.10;;;16.90;99.90;;;;;;7365847;32;20137;-65
2022/09/08 08:58:40;;;;;;;6.40;1.83;;;17.00;99.90;;;;;;7363676;32;20126;-65
2022/09/08 09:03:01;;;;;;;6.93;1.80;;;17.00;99.90;;;;;;7360974;32;20191;-65
2022/09/08 09:07:40;;;;;;;6.00;2.30;;;17.00;99.90;;;;;;7356995;32;20617;-65
2022/09/08 09:12:11;;;;;;;6.93;2.42;;;16.90;99.90;;;;;;7362935;32;20127;-65
2022/09/08 09:16:53;;;;;;;5.00;3.05;;;16.90;99.90;;;;;;7363545;32;20175;-65
2022/09/08 09:21:19;;;;;;;6.28;3.05;;;17.10;99.90;;;;;;7358403;32;20160;-65
2022/09/08 09:25:36;;;;;;;6.55;2.85;;;17.30;99.90;;;;;;7364402;32;20586;-65
2022/09/08 09:29:38;;;;;;;5.03;2.70;;;17.60;99.90;;;;;;7362004;32;20179;-65
2022/09/08 09:34:15;;;;;;;6.03;3.33;;;17.70;99.90;;;;;;7368317;32;20182;-65
2022/09/08 09:38:37;;;;;;;9.45;2.75;;;18.30;99.90;;;;;;7362688;32;20114;-65
2022/09/08 09:43:03;;;;;;;7.00;2.40;;;18.50;99.90;;;;;;7365020;32;20099;-65
2022/09/08 09:47:19;;;;;;;5.60;2.25;;;18.70;99.90;;;;;;7361573;32;20106;-65
2022/09/08 09:51:39;;;;;;;3.75;1.67;;;18.90;99.90;;;;;;7353067;32;20221;-64
2022/09/08 09:56:00;;;;;;;3.67;2.00;;;18.70;99.90;;;;;;7361053;32;20611;-64
2022/09/08 10:00:18;;;;;;;3.83;1.77;;;18.40;99.90;;;;;;7370106;32;20198;-65
2022/09/08 10:04:50;;;;;;;6.35;1.65;;;18.40;99.90;;;;;;7367403;32;20220;-64
2022/09/08 10:09:03;;;;;;;4.40;1.90;;;18.30;99.90;;;;;;7364692;32;20217;-64
2022/09/08 10:13:15;;;;;;;4.43;1.65;;;18.20;99.90;;;;;;7360758;32;20186;-64
2022/09/08 10:17:58;;;;;;;4.45;1.50;;;18.00;99.90;;;;;;7369424;32;20208;-66
2022/09/08 10:22:41;;;;;;;3.20;1.23;;;18.00;99.90;;;;;;7363545;32;20143;-64
2022/09/08 10:27:00;;;;;;;4.22;0.98;;;18.10;99.90;;;;;;7324886;32;20137;-64
2022/09/08 10:31:46;;;;;;;2.47;1.00;;;18.00;99.90;;;;;;7362150;32;20230;-64
2022/09/08 10:35:51;;;;;;;4.45;1.10;;;17.80;99.90;;;;;;7360524;32;20114;-64
2022/09/08 10:40:12;;;;;;;2.55;0.80;;;17.60;99.90;;;;;;7366419;32;20107;-64
2022/09/08 10:44:29;;;;;;;5.78;1.00;;;17.60;99.90;;;;;;7360145;32;20528;-64
2022/09/08 10:49:09;;;;;;;4.40;0.95;;;17.50;99.90;;;;;;7360158;32;20107;-64
2022/09/08 10:53:33;;;;;;;6.32;1.50;;;17.70;99.90;;;;;;7362754;32;20198;-64
2022/09/08 10:57:45;;;;;;;1.52;0.70;;;17.80;99.90;;;;;;7361583;32;20182;-64
2022/09/08 11:02:06;;;;;;;2.85;0.88;;;18.00;99.90;;;;;;7363975;32;20237;-64
2022/09/08 11:06:27;;;;;;;4.32;0.50;;;18.80;99.90;;;;;;7359975;32;20112;-64
2022/09/08 11:10:51;;;;;;;3.03;0.50;;;19.30;99.90;;;;;;7362763;32;20115;-67
2022/09/08 11:15:23;;;;;;;6.28;0.70;;;19.90;99.90;;;;;;7367113;32;20095;-65
2022/09/08 11:19:48;;;;;;;2.45;0.50;;;20.30;99.90;;;;;;7362662;32;20137;-64
2022/09/08 11:24:09;;;;;;;2.53;0.70;;;20.20;99.90;;;;;;7357970;32;20114;-64
2022/09/08 11:28:32;;;;;;;1.55;0.40;;;19.90;99.90;;;;;;7354345;32;20202;-64
2022/09/08 11:32:52;;;;;;;3.58;0.70;;;19.80;99.90;;;;;;7359897;32;20287;-64
2022/09/08 11:37:18;;;;;;;2.70;0.60;;;20.20;99.90;;;;;;7360432;32;20261;-64
2022/09/08 11:41:45;;;;;;;2.05;0.60;;;20.50;99.90;;;;;;7359785;32;20108;-64
2022/09/08 11:46:15;;;;;;;4.50;0.62;;;20.10;99.90;;;;;;7358124;32;20202;-64
2022/09/08 11:50:35;;;;;;;5.15;0.60;;;19.80;99.90;;;;;;7360063;32;20107;-64
2022/09/08 11:54:52;;;;;;;2.70;0.52;;;19.70;99.90;;;;;;7353086;32;20569;-64
2022/09/08 11:59:21;;;;;;;2.15;0.62;;;19.80;99.90;;;;;;7358531;32;20216;-63
2022/09/08 12:03:42;;;;;;;3.30;0.60;;;19.90;99.90;;;;;;7368319;32;20197;-64
2022/09/08 12:07:56;;;;;;;3.00;0.70;;;20.20;99.90;;;;;;7355433;32;20185;-64
2022/09/08 12:12:34;;;;;;;3.00;0.52;;;20.70;99.90;;;;;;7366226;32;20214;-64
2022/09/08 12:16:48;;;;;;;3.40;0.65;;;20.70;99.90;;;;;;7361168;32;20110;-64
2022/09/08 12:21:27;;;;;;;3.58;0.70;;;20.70;99.90;;;;;;7356053;32;20135;-64
2022/09/08 12:25:43;;;;;;;2.03;0.50;;;20.70;99.90;;;;;;7364918;32;20133;-65
2022/09/08 12:30:20;;;;;;;3.60;0.60;;;21.00;99.90;;;;;;7359469;32;20127;-64
2022/09/08 12:34:27;;;;;;;1.95;0.60;;;21.20;99.90;;;;;;7362194;32;20178;-63
2022/09/08 12:38:51;;;;;;;4.05;0.80;;;21.30;99.90;;;;;;7354167;32;20104;-63
2022/09/08 12:43:17;;;;;;;3.47;0.70;;;21.30;99.90;;;;;;7357214;32;21300;-65
2022/09/08 12:47:34;;;;;;;1.95;0.45;;;21.30;99.90;;;;;;7350045;32;20110;-64
2022/09/08 12:51:38;;;;;;;3.23;0.53;;;21.60;99.90;;;;;;7358993;32;20259;-64
2022/09/08 12:55:48;;;;;;;1.77;0.52;;;22.10;99.90;;;;;;7359946;32;20328;-65
2022/09/08 12:59:50;;;;;;;0.70;0.40;;;22.50;99.90;;;;;;7357665;32;20139;-58
2022/09/08 13:03:59;;;;;;;1.65;0.50;;;22.30;99.90;;;;;;7357850;32;20372;-57
2022/09/08 13:08:27;;;;;;;3.70;0.70;;;22.30;99.90;;;;;;7358160;32;20130;-58
2022/09/08 13:12:31;;;;;;;2.28;0.50;;;21.90;99.90;;;;;;7358064;32;20668;-58
2022/09/08 13:16:43;;;;;;;2.87;0.37;;;21.60;99.90;;;;;;7366347;32;20206;-58
2022/09/08 13:21:03;;;;;;;4.18;0.70;;;22.00;99.90;;;;;;7363895;32;20226;-58
2022/09/08 13:25:28;;;;;;;4.07;0.60;;;21.90;99.90;;;;;;7360284;32;21334;-58
2022/09/08 13:30:11;;;;;;;3.28;0.50;;;22.10;99.90;;;;;;7362423;32;20220;-65
2022/09/08 13:35:00;;;;;;;3.55;0.50;;;22.30;99.90;;;;;;7366728;32;20493;-66
2022/09/08 13:39:25;;;;;;;2.75;0.70;;;22.00;99.90;;;;;;7365129;32;20293;-65
2022/09/08 13:44:08;;;;;;;2.90;0.60;;;22.10;99.90;;;;;;7366441;32;20190;-64
2022/09/08 13:48:16;;;;;;;2.08;0.70;;;22.40;99.90;;;;;;7343353;32;20213;-67
2022/09/08 13:52:54;;;;;;;4.20;0.70;;;22.70;99.90;;;;;;7351464;32;20724;-64
2022/09/08 13:57:15;;;;;;;2.90;0.57;;;22.60;99.90;;;;;;7363372;32;20451;-64
2022/09/08 14:01:28;;;;;;;2.83;0.40;;;22.20;99.90;;;;;;7357842;32;20726;-64
2022/09/08 14:05:39;;;;;;;2.55;0.60;;;21.80;99.90;;;;;;7353763;32;20206;-64
2022/09/08 14:10:13;;;;;;;4.03;0.40;;;22.40;99.90;;;;;;7358640;32;20134;-63
2022/09/08 14:14:19;;;;;;;3.42;0.52;;;22.20;99.90;;;;;;7362063;32;20108;-63
2022/09/08 14:18:49;;;;;;;3.22;0.60;;;22.00;99.90;;;;;;7355520;32;20476;-62
2022/09/08 14:23:12;;;;;;;4.55;0.50;;;21.80;99.90;;;;;;7358572;32;20111;-63
2022/09/08 14:28:02;;;;;;;3.58;0.70;;;21.60;99.90;;;;;;7359813;32;20130;-64
2022/09/08 14:32:30;;;;;;;5.90;0.65;;;21.50;99.90;;;;;;7344290;32;20261;-62
2022/09/08 14:36:44;;;;;;;4.18;0.70;;;21.30;99.90;;;;;;7357567;32;20229;-63
2022/09/08 14:41:07;;;;;;;3.60;0.62;;;21.30;99.90;;;;;;7369359;32;20190;-63
2022/09/08 14:45:58;;;;;;;6.10;0.70;;;21.20;99.90;;;;;;7357433;32;20548;-64
2022/09/08 14:50:16;;;;;;;4.03;0.62;;;21.20;99.90;;;;;;7342887;32;20202;-64
2022/09/08 14:54:32;;;;;;;2.58;0.43;;;21.30;99.90;;;;;;7360491;32;20198;-65
2022/09/08 14:58:55;;;;;;;2.30;0.50;;;21.40;99.90;;;;;;7354168;32;20229;-56
2022/09/08 15:03:09;;;;;;;2.78;0.60;;;21.80;99.90;;;;;;7355164;32;20209;-56
2022/09/08 15:07:18;;;;;;;4.75;1.08;;;21.90;99.90;;;;;;7361182;32;20595;-63
2022/09/08 15:11:37;;;;;;;1.95;0.35;;;21.80;99.90;;;;;;7354961;32;20237;-63
2022/09/08 15:15:39;;;;;;;3.45;1.00;;;21.90;99.90;;;;;;7357718;32;20220;-54
2022/09/08 15:19:47;;;;;;;3.05;0.60;;;22.00;99.90;;;;;;7355891;32;20194;-54
2022/09/08 15:23:52;;;;;;;3.85;0.52;;;22.00;99.90;;;;;;7358614;32;20202;-63
2022/09/08 15:27:53;;;;;;;3.10;0.70;;;21.80;99.90;;;;;;7348346;32;20210;-64
2022/09/08 15:32:01;;;;;;;7.55;0.93;;;21.80;99.90;;;;;;7350946;32;20590;-63
2022/09/08 15:36:24;;;;;;;3.15;0.50;;;21.70;99.90;;;;;;7352531;32;20202;-63
2022/09/08 15:40:27;;;;;;;4.53;0.77;;;21.80;99.90;;;;;;7354724;32;20650;-64
2022/09/08 15:45:10;;;;;;;4.37;0.80;;;21.60;99.90;;;;;;7352727;32;20182;-63
2022/09/08 15:49:37;;;;;;;3.60;0.55;;;21.50;99.90;;;;;;7297529;32;20259;-64
2022/09/08 15:54:18;;;;;;;4.87;0.85;;;21.30;99.90;;;;;;7355107;32;20194;-63
2022/09/08 15:58:25;;;;;;;5.40;0.80;;;21.30;99.90;;;;;;7348027;32;20524;-64
2022/09/08 16:02:52;;;;;;;9.35;1.12;;;21.10;99.90;;;;;;7352192;32;20216;-63
2022/09/08 16:07:15;;;;;;;6.07;1.10;;;20.90;99.90;;;;;;7348924;32;20190;-63
2022/09/08 16:11:43;;;;;;;7.90;1.30;;;20.80;99.90;;;;;;7354037;32;20212;-63
2022/09/08 16:15:50;;;;;;;3.47;0.60;;;20.70;99.90;;;;;;7344406;32;20212;-64
2022/09/08 16:20:20;;;;;;;5.12;0.70;;;20.70;99.90;;;;;;7351923;32;20230;-62
2022/09/08 16:24:39;;;;;;;3.62;0.77;;;20.60;99.90;;;;;;7357960;32;20193;-64
2022/09/08 16:28:52;;;;;;;4.72;0.85;;;20.50;99.90;;;;;;7353425;32;20806;-63
2022/09/08 16:33:01;;;;;;;2.95;0.70;;;20.40;99.90;;;;;;7356055;32;20248;-63
2022/09/08 16:37:15;;;;;;;6.45;0.73;;;20.30;99.90;;;;;;7360031;32;20149;-63
2022/09/08 16:41:41;;;;;;;4.00;0.80;;;20.30;99.90;;;;;;7350721;32;20579;-65
2022/09/08 16:45:53;;;;;;;2.45;0.95;;;20.20;99.90;;;;;;7359289;32;20182;-63
2022/09/08 16:50:03;;;;;;;3.30;0.82;;;20.20;99.90;;;;;;7355332;32;20186;-63
2022/09/08 16:54:34;;;;;;;4.85;1.20;;;20.10;99.90;;;;;;7372952;32;20133;-55
2022/09/08 16:58:39;;;;;;;5.05;0.80;;;20.10;99.90;;;;;;7360251;32;20131;-63
2022/09/08 17:02:50;;;;;;;3.55;0.73;;;20.20;99.90;;;;;;7365483;32;20749;-62
2022/09/08 17:07:03;;;;;;;5.55;0.60;;;20.20;99.90;;;;;;7370718;32;20569;-62
2022/09/08 17:11:25;;;;;;;3.42;0.70;;;19.30;99.90;;;;;;7368220;32;20106;-63
2022/09/08 17:16:13;;;;;;;3.97;0.60;;;18.50;99.90;;;;;;7371075;32;20685;-62
2022/09/08 17:20:47;;;;;;;5.00;1.00;;;17.90;99.90;;;;;;7363729;32;20503;-63
2022/09/08 17:25:05;;;;;;;3.37;0.80;;;17.50;99.90;;;;;;7377065;32;20153;-64
2022/09/08 17:29:16;;;;;;;;;;;17.20;99.90;;;;;;7364057;32;20161;-64
2022/09/08 17:34:04;;;;;;;4.82;0.88;;;16.90;99.90;;;;;;7368646;32;20446;-63
2022/09/08 17:38:25;;;;;;;3.75;0.80;;;16.70;99.90;;;;;;7363051;32;20106;-63
2022/09/08 17:42:57;;;;;;;6.60;1.12;;;16.60;99.90;;;;;;7363332;32;20571;-63
2022/09/08 17:47:15;;;;;;;7.80;1.10;;;16.50;99.90;;;;;;7362470;32;20180;-63
2022/09/08 17:51:48;;;;;;;3.95;1.00;;;16.50;99.90;;;;;;7360289;32;20160;-62
2022/09/08 17:56:13;;;;;;;3.40;0.95;;;16.40;99.90;;;;;;7370694;32;20157;-64
2022/09/08 18:00:19;;;;;;;5.72;1.00;;;16.40;99.90;;;;;;7366700;32;20107;-63
2022/09/08 18:04:29;;;;;;;5.23;1.50;;;16.40;99.90;;;;;;7361382;32;20133;-63
2022/09/08 18:08:34;;;;;;;6.45;1.50;;;16.30;99.90;;;;;;7365601;32;20226;-63
2022/09/08 18:12:43;;;;;;;4.82;1.30;;;16.30;99.90;;;;;;7362227;32;20119;-63
2022/09/08 18:17:17;;;;;;;3.80;1.33;;;16.20;99.90;;;;;;7368968;32;20115;-59
2022/09/08 18:21:41;;;;;;;4.20;1.40;;;16.10;99.90;;;;;;7367409;32;20221;-59
2022/09/08 18:25:48;;;;;;;2.95;1.37;;;16.10;99.90;;;;;;7365987;32;20628;-59
2022/09/08 18:30:10;;;;;;;4.47;1.37;;;16.00;99.90;;;;;;7365880;32;20103;-59
2022/09/08 18:34:33;;;;;;;3.72;1.40;;;16.00;99.90;;;;;;7367673;32;20169;-58
2022/09/08 18:38:40;;;;;;;6.80;2.40;;;15.90;99.90;;;;;;7364518;32;20107;-58
2022/09/08 18:43:32;;;;;;;5.43;1.90;;;15.90;99.90;;;;;;7364426;32;20119;-59
2022/09/08 18:47:34;;;;;;;3.87;1.60;;;15.80;99.90;;;;;;7363991;32;20243;-58
2022/09/08 18:51:43;;;;;;;3.47;1.50;;;15.70;99.90;;;;;;7363981;32;20099;-59
2022/09/08 18:55:47;;;;;;;5.15;1.50;;;15.60;99.90;;;;;;7359112;32;20111;-58
2022/09/08 18:59:52;;;;;;;3.22;1.48;;;15.60;99.90;;;;;;7362432;32;20103;-59
2022/09/08 19:04:01;;;;;;;4.25;1.60;;;15.50;99.90;;;;;;7356986;32;20183;-59
2022/09/08 19:08:32;;;;;;;4.35;1.35;;;15.40;99.90;;;;;;7358766;32;20212;-59
2022/09/08 19:13:00;;;;;;;2.75;1.42;;;15.40;99.90;;;;;;7361639;32;20593;-60
2022/09/08 19:17:26;;;;;;;3.03;1.10;;;15.30;99.90;;;;;;7368424;32;20119;-60
2022/09/08 19:21:27;;;;;;;3.03;1.23;;;15.20;99.90;;;;;;7359451;32;20139;-59
2022/09/08 19:25:30;;;;;;;2.28;1.20;;;15.20;99.90;;;;;;7362522;32;20111;-61
2022/09/08 19:29:45;;;;;;;3.97;1.42;;;15.10;99.90;;;;;;7364315;32;20221;-60
2022/09/08 19:33:59;;;;;;;4.22;1.42;;;15.10;99.90;;;;;;7364025;32;20478;-60
2022/09/08 19:38:07;;;;;;;10.00;1.65;;;15.10;99.90;;;;;;7362689;32;20139;-58
2022/09/08 19:42:21;;;;;;;3.80;1.77;;;15.10;99.90;;;;;;7356438;32;20225;-58
2022/09/08 19:46:29;;;;;;;3.80;1.30;;;15.10;99.90;;;;;;7365685;32;20178;-59
2022/09/08 19:50:50;;;;;;;8.68;1.20;;;15.00;99.90;;;;;;7356795;32;20102;-59
2022/09/08 19:54:55;;;;;;;4.15;1.20;;;15.00;99.90;;;;;;7348563;32;20127;-59
2022/09/08 19:59:05;;;;;;;3.28;1.60;;;15.00;99.90;;;;;;7356678;32;20446;-60
2022/09/08 20:03:29;;;;;;;8.88;1.85;;;15.00;99.90;;;;;;7344000;32;20597;-60
2022/09/08 20:07:49;;;;;;;4.65;1.37;;;15.00;99.90;;;;;;7342844;32;20278;-59
2022/09/08 20:12:19;;;;;;;4.65;1.30;;;14.90;99.90;;;;;;7355787;32;20107;-60
2022/09/08 20:16:40;;;;;;;3.97;1.33;;;15.00;99.90;;;;;;7350293;32;20129;-59
2022/09/08 20:21:01;;;;;;;3.33;1.20;;;15.00;99.90;;;;;;7354645;32;20233;-58
2022/09/08 20:25:28;;;;;;;5.53;1.40;;;15.00;99.90;;;;;;7352886;32;20262;-59
2022/09/08 20:29:43;;;;;;;2.72;1.20;;;15.00;99.90;;;;;;7360089;32;20186;-59
2022/09/08 20:34:13;;;;;;;5.10;1.60;;;15.00;99.90;;;;;;7349818;32;20179;-59
2022/09/08 20:38:54;;;;;;;5.30;1.67;;;15.00;99.90;;;;;;7356048;32;20206;-59
2022/09/08 20:43:15;;;;;;;5.07;1.58;;;15.10;99.90;;;;;;7351091;32;20091;-60
2022/09/08 20:47:27;;;;;;;5.72;1.67;;;15.00;99.90;;;;;;7355370;32;20537;-59
2022/09/08 20:51:58;;;;;;;5.62;1.40;;;15.00;99.90;;;;;;7354432;32;20095;-63
2022/09/08 20:56:23;;;;;;;3.10;1.23;;;15.00;99.90;;;;;;7356072;32;20192;-59
2022/09/08 21:00:34;;;;;;;4.30;1.23;;;15.00;99.90;;;;;;7361983;32;20144;-59
2022/09/08 21:04:38;;;;;;;8.13;2.00;;;14.90;99.90;;;;;;7353294;32;20220;-59
2022/09/08 21:08:53;;;;;;;5.47;1.55;;;14.90;99.90;;;;;;7364573;32;20488;-61
2022/09/08 21:13:21;;;;;;;5.45;1.60;;;14.90;99.90;;;;;;7360219;32;20149;-59
2022/09/08 21:17:23;;;;;;;;;;;14.90;99.90;;;;;;7360248;32;20111;-61
2022/09/08 21:21:37;;;;;;;6.90;1.73;;;14.90;99.90;;;;;;7342248;32;20663;-59
2022/09/08 21:25:53;;;;;;;5.78;1.65;;;14.90;99.90;;;;;;7362678;32;20208;-59
2022/09/08 21:30:13;;;;;;;6.15;1.80;;;14.80;99.90;;;;;;7357858;32;20098;-58
2022/09/08 21:34:39;;;;;;;5.35;1.15;;;14.80;99.90;;;;;;7358976;32;20244;-58
2022/09/08 21:38:52;;;;;;;4.22;1.50;;;14.80;99.90;;;;;;7373226;32;20571;-58
2022/09/08 21:42:54;;;;;;;3.78;1.52;;;14.80;99.90;;;;;;7365865;32;20118;-58
2022/09/08 21:47:01;;;;;;;10.43;2.17;;;14.80;99.90;;;;;;7365825;32;20100;-58
2022/09/08 21:51:02;;;;;;;5.65;1.65;;;14.80;99.90;;;;;;7373480;32;20104;-58
2022/09/08 21:55:07;;;;;;;6.32;1.80;;;14.70;99.90;;;;;;7367902;32;20186;-58
2022/09/08 21:59:23;;;;;;;7.12;1.52;;;14.80;99.90;;;;;;7366199;32;20104;-57
2022/09/08 22:03:38;;;;;;;5.45;1.95;;;14.90;99.90;;;;;;7368213;32;20107;-58
2022/09/08 22:07:42;;;;;;;6.12;1.75;;;15.00;99.90;;;;;;7366278;32;20095;-58
2022/09/08 22:11:57;;;;;;;5.28;1.60;;;15.00;99.90;;;;;;7377221;32;20103;-57